createdAt,value
2018-08-20T00:01:26.360Z,2.50
2018-08-20T00:03:54.999Z,3.50
2018-08-20T00:06:23.500Z,3.47
2018-08-20T00:08:52.027Z,2.77
2018-08-20T00:11:20.554Z,2.47
2018-08-20T00:13:49.054Z,3.00
2018-08-20T00:16:17.584Z,3.13
2018-08-20T00:18:46.162Z,3.47
2018-08-20T00:21:14.601Z,2.67
2018-08-20T00:23:43.129Z,2.30
2018-08-20T00:26:11.610Z,4.50
2018-08-20T00:28:40.094Z,2.67
2018-08-20T00:31:08.580Z,2.40
2018-08-20T00:33:37.871Z,2.40
2018-08-20T00:36:06.423Z,3.17
2018-08-20T00:38:35.155Z,3.63
2018-08-20T00:41:03.851Z,3.20
2018-08-20T00:43:32.339Z,2.70
2018-08-20T00:46:01.076Z,2.87
2018-08-20T00:48:29.699Z,3.00
2018-08-20T00:50:58.278Z,3.30
2018-08-20T00:53:26.769Z,3.20
2018-08-20T00:55:55.319Z,3.03
2018-08-20T00:58:24.018Z,3.40
2018-08-20T01:00:52.654Z,3.10
2018-08-20T01:03:21.274Z,2.77
2018-08-20T01:05:49.760Z,2.83
2018-08-20T01:08:18.339Z,2.63
2018-08-20T01:10:46.858Z,2.93
2018-08-20T01:13:15.349Z,3.70
2018-08-20T01:15:43.832Z,3.07
2018-08-20T01:18:12.306Z,3.17
2018-08-20T01:20:40.847Z,2.80
2018-08-20T01:23:09.426Z,2.77
2018-08-20T01:25:37.970Z,3.70
2018-08-20T01:28:06.531Z,3.10
2018-08-20T01:30:35.035Z,3.40
2018-08-20T01:33:08.728Z,3.07
2018-08-20T01:35:37.319Z,2.40
2018-08-20T01:38:06.211Z,2.90
2018-08-20T01:40:34.767Z,2.77
2018-08-20T01:43:03.272Z,3.20
2018-08-20T01:45:31.745Z,3.27
2018-08-20T01:48:00.366Z,2.60
2018-08-20T01:50:28.994Z,3.13
2018-08-20T01:52:57.558Z,2.93
2018-08-20T01:55:26.161Z,3.00
2018-08-20T01:57:54.738Z,3.37
2018-08-20T02:00:23.211Z,2.90
2018-08-20T02:02:54.387Z,3.30
2018-08-20T02:05:23.777Z,3.40
2018-08-20T02:07:52.733Z,3.03
2018-08-20T02:10:21.366Z,2.67
2018-08-20T02:12:50.071Z,3.53
2018-08-20T02:15:18.615Z,2.80
2018-08-20T02:17:47.043Z,3.00
2018-08-20T02:20:15.656Z,4.10
2018-08-20T02:22:50.666Z,3.47
2018-08-20T02:25:19.335Z,2.60
2018-08-20T02:27:47.914Z,2.40
2018-08-20T02:30:16.375Z,3.60
2018-08-20T02:32:44.905Z,3.23
2018-08-20T02:35:13.445Z,4.13
2018-08-20T02:37:45.986Z,3.10
2018-08-20T02:40:15.521Z,2.90
2018-08-20T02:42:44.197Z,3.20
2018-08-20T02:45:16.059Z,2.77
2018-08-20T02:47:45.194Z,3.97
2018-08-20T02:50:14.378Z,3.57
2018-08-20T02:52:44.078Z,3.00
2018-08-20T02:55:12.954Z,3.37
2018-08-20T02:57:41.434Z,3.00
2018-08-20T03:00:12.460Z,2.47
2018-08-20T03:02:41.276Z,3.40
2018-08-20T03:05:11.249Z,3.17
2018-08-20T03:07:39.909Z,3.30
2018-08-20T03:10:10.269Z,2.90
2018-08-20T03:12:38.974Z,2.60
2018-08-20T03:15:08.614Z,3.30
2018-08-20T03:17:37.143Z,3.90
2018-08-20T03:20:06.048Z,3.27
2018-08-20T03:22:34.746Z,3.37
2018-08-20T03:25:03.343Z,3.30
2018-08-20T03:27:31.832Z,3.00
2018-08-20T03:30:00.375Z,2.83
2018-08-20T03:32:29.102Z,2.83
2018-08-20T03:34:58.074Z,3.00
2018-08-20T03:37:26.952Z,3.50
2018-08-20T03:39:55.451Z,3.00
2018-08-20T03:42:24.058Z,2.83
2018-08-20T03:44:52.911Z,3.63
2018-08-20T03:47:21.915Z,2.67
2018-08-20T03:49:51.690Z,2.60
2018-08-20T03:52:20.173Z,2.67
2018-08-20T03:54:48.760Z,3.13
2018-08-20T03:57:17.250Z,2.57
2018-08-20T03:59:45.753Z,3.70
2018-08-20T04:02:14.285Z,3.57
2018-08-20T04:04:43.020Z,2.13
2018-08-20T04:07:11.848Z,3.50
2018-08-20T04:09:40.321Z,3.33
2018-08-20T04:12:08.843Z,3.70
2018-08-20T04:14:37.405Z,3.20
2018-08-20T04:17:05.877Z,3.47
2018-08-20T04:19:34.394Z,2.87
2018-08-20T04:22:03.048Z,4.10
2018-08-20T04:24:31.700Z,3.00
2018-08-20T04:27:01.038Z,3.00
2018-08-20T04:29:29.669Z,3.83
2018-08-20T04:31:58.354Z,3.10
2018-08-20T04:34:26.839Z,2.70
2018-08-20T04:36:55.497Z,3.40
2018-08-20T04:39:24.265Z,3.80
2018-08-20T04:41:52.892Z,2.87
2018-08-20T04:44:21.580Z,2.57
2018-08-20T04:46:50.341Z,3.37
2018-08-20T04:49:18.958Z,2.73
2018-08-20T04:51:47.471Z,3.40
2018-08-20T04:54:16.186Z,3.00
2018-08-20T04:56:44.795Z,3.40
2018-08-20T04:59:13.451Z,3.43
2018-08-20T05:01:41.943Z,3.40
2018-08-20T05:04:10.580Z,2.80
2018-08-20T05:06:39.095Z,3.87
2018-08-20T05:09:08.063Z,3.60
2018-08-20T05:11:36.700Z,3.97
2018-08-20T05:14:05.403Z,3.83
2018-08-20T05:16:34.071Z,2.80
2018-08-20T05:19:02.681Z,2.67
2018-08-20T05:21:32.109Z,2.97
2018-08-20T05:24:00.765Z,3.43
2018-08-20T05:26:29.302Z,3.93
2018-08-20T05:28:57.813Z,3.60
2018-08-20T05:31:26.539Z,3.90
2018-08-20T05:33:54.967Z,3.43
2018-08-20T05:36:23.775Z,3.77
2018-08-20T05:38:52.406Z,3.57
2018-08-20T05:41:20.964Z,3.90
2018-08-20T05:43:49.627Z,4.03
2018-08-20T05:46:18.109Z,3.30
2018-08-20T05:48:46.658Z,3.67
2018-08-20T05:51:15.143Z,3.30
2018-08-20T05:53:43.634Z,3.40
2018-08-20T05:56:12.174Z,3.57
2018-08-20T05:58:40.790Z,4.40
2018-08-20T06:01:09.248Z,3.37
2018-08-20T06:03:38.494Z,3.77
2018-08-20T06:06:07.706Z,3.67
2018-08-20T06:08:36.247Z,3.60
2018-08-20T06:11:04.990Z,3.00
2018-08-20T06:13:33.709Z,4.20
2018-08-20T06:16:02.293Z,3.50
2018-08-20T06:18:31.095Z,4.20
2018-08-20T06:20:59.623Z,4.00
2018-08-20T06:23:28.093Z,3.87
2018-08-20T06:25:57.544Z,3.13
2018-08-20T06:28:26.138Z,3.47
2018-08-20T06:30:54.723Z,3.83
2018-08-20T06:33:23.528Z,3.60
2018-08-20T06:35:52.093Z,3.70
2018-08-20T06:38:20.702Z,3.87
2018-08-20T06:40:49.282Z,3.73
2018-08-20T06:43:17.947Z,4.33
2018-08-20T06:45:46.563Z,3.27
2018-08-20T06:48:15.335Z,3.27
2018-08-20T06:50:43.835Z,3.43
2018-08-20T06:53:12.619Z,2.90
2018-08-20T06:55:41.379Z,3.47
2018-08-20T06:58:10.271Z,3.37
2018-08-20T07:00:38.882Z,3.70
2018-08-20T07:03:07.499Z,4.97
2018-08-20T07:05:36.035Z,3.40
2018-08-20T07:08:04.828Z,3.07
2018-08-20T07:10:38.674Z,3.43
2018-08-20T07:13:18.272Z,3.47
2018-08-20T07:15:46.797Z,4.40
2018-08-20T07:18:15.406Z,3.90
2018-08-20T07:20:43.922Z,3.30
2018-08-20T07:23:12.467Z,2.87
2018-08-20T07:25:40.938Z,3.60
2018-08-20T07:28:09.652Z,2.97
2018-08-20T07:30:38.330Z,2.87
2018-08-20T07:33:06.970Z,4.20
2018-08-20T07:35:35.635Z,3.30
2018-08-20T07:38:04.198Z,3.83
2018-08-20T07:40:32.663Z,3.90
2018-08-20T07:43:01.693Z,3.40
2018-08-20T07:45:30.718Z,4.17
2018-08-20T07:47:59.370Z,3.37
2018-08-20T07:50:29.173Z,4.03
2018-08-20T07:52:57.967Z,3.30
2018-08-20T07:55:26.836Z,3.40
2018-08-20T07:57:55.479Z,2.90
2018-08-20T08:00:23.978Z,3.23
2018-08-20T08:02:52.482Z,3.50
2018-08-20T08:05:22.969Z,2.80
2018-08-20T08:07:51.474Z,3.07
2018-08-20T08:10:20.076Z,2.83
2018-08-20T08:12:49.644Z,4.23
2018-08-20T08:15:18.296Z,2.90
2018-08-20T08:17:47.162Z,3.90
2018-08-20T08:20:16.037Z,3.03
2018-08-20T08:22:44.682Z,4.40
2018-08-20T08:25:13.271Z,3.40
2018-08-20T08:27:41.808Z,3.20
2018-08-20T08:30:16.396Z,3.73
2018-08-20T08:32:47.347Z,3.47
2018-08-20T08:35:15.997Z,3.70
2018-08-20T08:37:45.146Z,3.53
2018-08-20T08:40:15.003Z,4.00
2018-08-20T08:42:43.893Z,3.10
2018-08-20T08:45:15.757Z,2.83
2018-08-20T08:47:44.731Z,4.07
2018-08-20T08:50:13.911Z,3.07
2018-08-20T08:52:42.586Z,2.87
2018-08-20T08:55:11.844Z,3.50
2018-08-20T08:57:40.364Z,3.37
2018-08-20T09:00:16.669Z,3.73
2018-08-20T09:02:45.463Z,3.83
2018-08-20T09:05:15.371Z,3.20
2018-08-20T09:07:44.365Z,2.93
2018-08-20T09:10:13.460Z,2.93
2018-08-20T09:12:42.277Z,3.07
2018-08-20T09:15:13.866Z,2.30
2018-08-20T09:17:42.558Z,3.07
2018-08-20T09:20:14.538Z,2.97
2018-08-20T09:22:43.046Z,2.50
2018-08-20T09:25:12.666Z,3.00
2018-08-20T09:27:43.672Z,3.40
2018-08-20T09:30:16.399Z,3.50
2018-08-20T09:32:46.744Z,2.30
2018-08-20T09:35:15.266Z,3.43
2018-08-20T09:37:43.951Z,2.70
2018-08-20T09:40:13.004Z,2.50
2018-08-20T09:42:42.536Z,2.40
2018-08-20T09:45:12.886Z,2.30
2018-08-20T09:47:42.421Z,2.90
2018-08-20T09:50:13.853Z,3.10
2018-08-20T09:52:42.837Z,2.43
2018-08-20T09:55:11.496Z,2.10
2018-08-20T09:57:41.440Z,2.50
2018-08-20T10:00:45.769Z,2.40
2018-08-20T10:03:14.449Z,2.30
2018-08-20T10:05:43.069Z,3.00
2018-08-20T10:08:11.715Z,2.60
2018-08-20T10:10:40.272Z,2.73
2018-08-20T10:13:09.170Z,2.43
2018-08-20T10:15:37.791Z,2.57
2018-08-20T10:18:07.146Z,2.80
2018-08-20T10:20:36.001Z,2.80
2018-08-20T10:23:04.690Z,3.10
2018-08-20T10:25:33.460Z,3.30
2018-08-20T10:28:02.148Z,3.20
2018-08-20T10:30:30.927Z,2.93
2018-08-20T10:32:59.701Z,2.50
2018-08-20T10:35:28.174Z,2.33
2018-08-20T10:37:56.855Z,2.13
2018-08-20T10:40:27.203Z,2.40
2018-08-20T10:42:57.239Z,2.33
2018-08-20T10:45:31.194Z,2.80
2018-08-20T10:48:00.265Z,2.80
2018-08-20T10:50:28.879Z,2.40
2018-08-20T10:52:57.389Z,3.23
2018-08-20T10:55:27.050Z,2.80
2018-08-20T10:57:55.741Z,2.33
2018-08-20T11:00:24.390Z,2.70
2018-08-20T11:02:53.047Z,2.80
2018-08-20T11:05:22.487Z,2.40
2018-08-20T11:07:51.131Z,3.67
2018-08-20T11:10:19.768Z,3.80
2018-08-20T11:12:48.275Z,3.13
2018-08-20T11:15:18.079Z,3.47
2018-08-20T11:17:46.531Z,3.13
2018-08-20T11:20:16.549Z,2.63
2018-08-20T11:22:45.286Z,2.47
2018-08-20T11:25:14.390Z,2.63
2018-08-20T11:27:43.068Z,2.67
2018-08-20T11:30:13.217Z,2.40
2018-08-20T11:32:41.906Z,1.93
2018-08-20T11:35:11.110Z,3.20
2018-08-20T11:37:40.194Z,1.70
2018-08-20T11:40:09.240Z,2.40
2018-08-20T11:42:38.606Z,2.53
2018-08-20T11:45:10.839Z,2.30
2018-08-20T11:47:39.695Z,2.50
2018-08-20T11:50:09.009Z,2.93
2018-08-20T11:52:38.287Z,2.67
2018-08-20T11:55:07.227Z,3.33
2018-08-20T11:57:36.091Z,2.90
2018-08-20T12:00:06.931Z,2.87
2018-08-20T12:02:35.730Z,2.80
2018-08-20T12:05:07.002Z,2.43
2018-08-20T12:07:35.740Z,3.00
2018-08-20T12:10:04.672Z,3.00
2018-08-20T12:12:33.363Z,2.50
2018-08-20T12:15:02.134Z,2.40
2018-08-20T12:17:30.924Z,3.17
2018-08-20T12:20:00.078Z,2.30
2018-08-20T12:22:30.086Z,2.83
2018-08-20T12:24:58.684Z,2.40
2018-08-20T12:27:27.797Z,2.77
2018-08-20T12:29:56.845Z,2.70
2018-08-20T12:32:25.356Z,3.07
2018-08-20T12:34:55.342Z,2.40
2018-08-20T12:37:24.133Z,2.43
2018-08-20T12:39:53.629Z,1.93
2018-08-20T12:42:22.574Z,1.90
2018-08-20T12:44:52.091Z,2.27
2018-08-20T12:47:21.448Z,2.13
2018-08-20T12:49:50.285Z,2.03
2018-08-20T12:52:19.207Z,1.83
2018-08-20T12:54:48.757Z,1.90
2018-08-20T12:57:17.623Z,2.13
2018-08-20T12:59:46.592Z,2.10
2018-08-20T13:02:15.256Z,1.50
2018-08-20T13:04:43.738Z,2.03
2018-08-20T13:07:12.806Z,2.97
2018-08-20T13:09:41.437Z,2.10
2018-08-20T13:12:10.681Z,2.47
2018-08-20T13:14:39.447Z,2.03
2018-08-20T13:17:08.217Z,2.00
2018-08-20T13:19:36.836Z,2.10
2018-08-20T13:22:07.092Z,1.70
2018-08-20T13:24:36.257Z,2.13
2018-08-20T13:27:05.158Z,1.60
2018-08-20T13:29:34.248Z,1.87
2018-08-20T13:32:02.815Z,1.67
2018-08-20T13:34:31.549Z,1.93
2018-08-20T13:37:01.873Z,1.83
2018-08-20T13:39:30.524Z,2.43
2018-08-20T13:42:00.109Z,1.73
2018-08-20T13:44:28.885Z,1.60
2018-08-20T13:46:58.418Z,1.73
2018-08-20T13:49:27.194Z,1.97
2018-08-20T13:51:56.188Z,1.97
2018-08-20T13:54:25.409Z,2.50
2018-08-20T13:56:54.157Z,2.10
2018-08-20T13:59:23.054Z,1.90
2018-08-20T14:01:51.863Z,2.20
2018-08-20T14:04:20.367Z,2.27
2018-08-20T14:06:48.998Z,2.20
2018-08-20T14:09:17.616Z,2.30
2018-08-20T14:11:49.506Z,1.93
2018-08-20T14:14:18.236Z,2.70
2018-08-20T14:16:48.123Z,2.57
2018-08-20T14:19:17.339Z,2.20
2018-08-20T14:21:45.887Z,1.77
2018-08-20T14:24:14.926Z,1.97
2018-08-20T14:26:43.508Z,2.30
2018-08-20T14:29:12.074Z,2.10
2018-08-20T14:31:40.988Z,1.80
2018-08-20T14:34:09.620Z,2.10
2018-08-20T14:36:38.351Z,1.60
2018-08-20T14:39:07.683Z,1.70
2018-08-20T14:41:36.554Z,2.07
2018-08-20T14:44:05.759Z,2.07
2018-08-20T14:46:34.752Z,2.20
2018-08-20T14:49:03.397Z,2.07
2018-08-20T14:51:32.668Z,2.03
2018-08-20T14:54:01.553Z,2.20
2018-08-20T14:56:30.482Z,2.10
2018-08-20T14:58:59.411Z,1.87
2018-08-20T15:01:27.980Z,1.77
2018-08-20T15:03:56.943Z,1.93
2018-08-20T15:06:25.571Z,2.67
2018-08-20T15:08:54.164Z,2.47
2018-08-20T15:11:23.630Z,1.50
2018-08-20T15:13:54.266Z,1.97
2018-08-20T15:16:23.026Z,2.10
2018-08-20T15:18:51.531Z,2.00
2018-08-20T15:21:22.387Z,2.40
2018-08-20T15:23:51.003Z,2.50
2018-08-20T15:26:19.607Z,2.93
2018-08-20T15:28:48.504Z,2.30
2018-08-20T15:31:18.266Z,2.40
2018-08-20T15:33:47.679Z,2.00
2018-08-20T15:36:16.559Z,1.93
2018-08-20T15:38:45.678Z,2.73
2018-08-20T15:41:14.264Z,2.33
2018-08-20T15:43:43.959Z,2.87
2018-08-20T15:46:13.012Z,1.90
2018-08-20T15:48:42.120Z,2.33
2018-08-20T15:51:10.961Z,2.60
2018-08-20T15:53:40.636Z,3.00
2018-08-20T15:56:09.554Z,1.87
2018-08-20T15:58:38.378Z,2.13
2018-08-20T16:01:08.142Z,1.93
2018-08-20T16:03:37.068Z,2.47
2018-08-20T16:06:06.068Z,2.27
2018-08-20T16:08:34.946Z,1.83
2018-08-20T16:11:05.237Z,2.00
2018-08-20T16:13:34.209Z,2.07
2018-08-20T16:16:04.215Z,2.07
2018-08-20T16:18:33.045Z,1.73
2018-08-20T16:21:01.851Z,2.23
2018-08-20T16:23:30.897Z,2.20
2018-08-20T16:25:59.716Z,1.70
2018-08-20T16:28:28.557Z,2.70
2018-08-20T16:30:57.492Z,1.93
2018-08-20T16:33:26.509Z,2.57
2018-08-20T16:35:55.751Z,2.27
2018-08-20T16:38:24.778Z,2.10
2018-08-20T16:40:53.372Z,1.67
2018-08-20T16:43:22.089Z,1.93
2018-08-20T16:45:50.996Z,2.43
2018-08-20T16:48:19.783Z,2.80
2018-08-20T16:50:48.446Z,2.57
2018-08-20T16:53:17.438Z,2.73
2018-08-20T16:55:46.218Z,2.37
2018-08-20T16:58:15.200Z,3.60
2018-08-20T17:00:44.075Z,2.90
2018-08-20T17:03:13.501Z,2.00
2018-08-20T17:05:50.431Z,2.00
2018-08-20T17:08:23.445Z,2.50
2018-08-20T17:10:52.909Z,2.27
2018-08-20T17:13:21.963Z,2.37
2018-08-20T17:15:50.696Z,2.40
2018-08-20T17:18:20.249Z,2.10
2018-08-20T17:20:49.216Z,2.23
2018-08-20T17:23:21.669Z,2.27
2018-08-20T17:25:53.379Z,2.10
2018-08-20T17:28:23.706Z,2.10
2018-08-20T17:30:56.041Z,2.80
2018-08-20T17:33:25.152Z,2.50
2018-08-20T17:35:54.968Z,2.30
2018-08-20T17:38:23.676Z,2.20
2018-08-20T17:40:52.960Z,2.33
2018-08-20T17:43:21.935Z,2.30
2018-08-20T17:45:51.092Z,2.03
2018-08-20T17:48:24.756Z,2.30
2018-08-20T17:50:53.621Z,2.50
2018-08-20T17:53:22.382Z,2.20
2018-08-20T17:55:51.005Z,2.60
2018-08-20T17:58:19.608Z,2.30
2018-08-20T18:00:53.968Z,2.57
2018-08-20T18:03:29.457Z,2.40
2018-08-20T18:06:00.650Z,2.40
2018-08-20T18:08:31.842Z,2.63
2018-08-20T18:11:01.004Z,3.40
2018-08-20T18:13:44.336Z,2.47
2018-08-20T18:16:15.007Z,2.80
2018-08-20T18:18:46.470Z,3.30
2018-08-20T18:21:15.457Z,2.90
2018-08-20T18:23:44.490Z,3.60
2018-08-20T18:26:13.256Z,2.47
2018-08-20T18:28:47.409Z,2.67
2018-08-20T18:31:22.719Z,2.77
2018-08-20T18:33:51.656Z,2.90
2018-08-20T18:36:21.536Z,3.00
2018-08-20T18:38:53.389Z,3.20
2018-08-20T18:41:30.525Z,3.03
2018-08-20T18:43:59.528Z,3.80
2018-08-20T18:46:28.176Z,2.50
2018-08-20T18:48:56.978Z,3.37
2018-08-20T18:51:26.167Z,2.73
2018-08-20T18:53:56.917Z,3.17
2018-08-20T18:56:25.605Z,2.83
2018-08-20T18:58:54.172Z,3.30
2018-08-20T19:01:22.936Z,3.20
2018-08-20T19:03:51.664Z,3.13
2018-08-20T19:06:20.330Z,3.40
2018-08-20T19:08:49.163Z,3.20
2018-08-20T19:11:18.087Z,2.80
2018-08-20T19:13:46.821Z,4.73
2018-08-20T19:16:38.077Z,3.50
2018-08-20T19:19:07.724Z,2.80
2018-08-20T19:21:40.942Z,3.50
2018-08-20T19:24:10.869Z,3.43
2018-08-20T19:26:39.986Z,3.13
2018-08-20T19:29:17.469Z,3.50
2018-08-20T19:31:46.002Z,4.20
2018-08-20T19:34:14.738Z,3.40
2018-08-20T19:36:43.307Z,3.50
2018-08-20T19:39:12.550Z,3.47
2018-08-20T19:41:41.064Z,2.80
2018-08-20T19:44:09.722Z,2.73
2018-08-20T19:46:39.276Z,4.43
2018-08-20T19:49:13.491Z,3.20
2018-08-20T19:51:43.642Z,3.97
2018-08-20T19:54:14.357Z,3.70
2018-08-20T19:56:43.150Z,3.67
2018-08-20T19:59:12.238Z,3.40
2018-08-20T20:01:41.541Z,2.60
2018-08-20T20:04:14.403Z,3.20
2018-08-20T20:06:44.131Z,3.87
2018-08-20T20:09:12.823Z,3.30
2018-08-20T20:11:45.801Z,3.77
2018-08-20T20:14:14.472Z,3.77
2018-08-20T20:16:48.649Z,3.80
2018-08-20T20:19:17.410Z,3.37
2018-08-20T20:21:45.962Z,3.57
2018-08-20T20:24:14.734Z,3.57
2018-08-20T20:26:43.248Z,3.10
2018-08-20T20:29:12.056Z,3.47
2018-08-20T20:31:41.786Z,3.90
2018-08-20T20:34:10.791Z,3.23
2018-08-20T20:36:39.560Z,3.20
2018-08-20T20:39:09.897Z,3.50
2018-08-20T20:41:38.549Z,3.03
2018-08-20T20:44:07.862Z,3.60
2018-08-20T20:46:36.982Z,4.00
2018-08-20T20:49:05.648Z,3.30
2018-08-20T20:51:34.316Z,3.83
2018-08-20T20:54:03.050Z,3.37
2018-08-20T20:56:31.738Z,4.00
2018-08-20T20:59:00.261Z,3.60
2018-08-20T21:01:28.840Z,4.60
2018-08-20T21:03:57.430Z,3.37
2018-08-20T21:06:26.032Z,3.60
2018-08-20T21:08:54.648Z,3.27
2018-08-20T21:11:23.579Z,3.53
2018-08-20T21:13:52.073Z,2.83
2018-08-20T21:16:24.155Z,3.40
2018-08-20T21:18:54.814Z,3.40
2018-08-20T21:21:23.854Z,3.50
2018-08-20T21:23:52.719Z,3.60
2018-08-20T21:26:21.227Z,3.70
2018-08-20T21:28:51.220Z,2.57
2018-08-20T21:31:21.984Z,3.87
2018-08-20T21:33:54.775Z,3.90
2018-08-20T21:36:23.526Z,3.77
2018-08-20T21:38:52.026Z,3.97
2018-08-20T21:41:22.571Z,4.20
2018-08-20T21:43:51.679Z,4.70
2018-08-20T21:46:20.275Z,3.57
2018-08-20T21:48:48.864Z,3.17
2018-08-20T21:51:25.271Z,4.13
2018-08-20T21:53:54.315Z,4.33
2018-08-20T21:56:23.310Z,3.90
2018-08-20T21:58:51.971Z,4.27
2018-08-20T22:01:20.662Z,3.73
2018-08-20T22:03:49.200Z,3.70
2018-08-20T22:06:18.021Z,3.73
2018-08-20T22:08:46.535Z,3.50
2018-08-20T22:11:15.666Z,4.07
2018-08-20T22:13:44.157Z,4.30
2018-08-20T22:16:16.776Z,3.43
2018-08-20T22:18:46.921Z,3.50
2018-08-20T22:21:17.073Z,3.03
2018-08-20T22:23:46.375Z,3.97
2018-08-20T22:26:16.428Z,3.97
2018-08-20T22:28:45.131Z,3.60
2018-08-20T22:31:13.648Z,4.40
2018-08-20T22:33:42.608Z,3.50
2018-08-20T22:36:13.245Z,3.87
2018-08-20T22:38:51.767Z,4.10
2018-08-20T22:41:21.059Z,4.60
2018-08-20T22:43:49.924Z,4.10
2018-08-20T22:46:19.352Z,4.73
2018-08-20T22:48:50.762Z,3.80
2018-08-20T22:51:20.765Z,3.83
2018-08-20T22:53:51.714Z,4.67
2018-08-20T22:56:26.797Z,4.07
2018-08-20T22:59:02.682Z,4.10
2018-08-20T23:01:31.342Z,3.70
2018-08-20T23:03:59.870Z,4.00
2018-08-20T23:06:28.357Z,3.73
2018-08-20T23:08:57.274Z,3.20
2018-08-20T23:11:37.935Z,4.43
2018-08-20T23:14:08.038Z,3.90
2018-08-20T23:16:37.111Z,4.03
2018-08-20T23:19:05.765Z,3.47
2018-08-20T23:21:43.935Z,4.00
2018-08-20T23:24:13.781Z,5.10
2018-08-20T23:26:42.624Z,3.23
2018-08-20T23:29:11.579Z,4.17
2018-08-20T23:31:40.660Z,4.43
2018-08-20T23:34:10.785Z,3.60
2018-08-20T23:36:40.110Z,3.63
2018-08-20T23:39:12.294Z,3.73
2018-08-20T23:41:41.208Z,4.00
2018-08-20T23:44:10.227Z,4.10
2018-08-20T23:46:44.084Z,3.50
2018-08-20T23:49:12.621Z,4.30
2018-08-20T23:51:41.426Z,3.40
2018-08-20T23:54:11.033Z,4.37
2018-08-20T23:56:40.006Z,3.70
2018-08-20T23:59:08.887Z,4.30
